• Join FlightAware (Why Join?)
  • Login
  • US Flag 
12:24PM EST


 

Airport Tracker/Info


-or-


 

Live Flight TrackerFlight Track Log ✈ CPZ5805 ✈ 28-Apr-2013 ✈ KMSP - KPIT

Flight Track Log - Related Links

Times and Time Zones

All times are in EDT time to prevent confusion due to time zone crossing. See the CPZ5805 flight status page for this flight to view local times or setup timezone preferences in your user account.

Time Position Orientation Groundspeed Altitude Reporting Facility
EDT Latitude Longitude Course Direction KTS MPH feet Rate Location/Type
11:48AM 44.8500 -93.2000 117° Southeast 165 190 2,500  Level Minneapolis TRACON
11:49AM 44.8358 -93.1669 121° Southeast 193 222 3,000 1,860 Climbing Minneapolis Center
11:50AM 44.7610 -92.7618 111° Southeast  Level Estimated
11:50AM 44.8069 -93.0706 113° Southeast 269 310 5,200  Level Minneapolis Center
11:51AM 44.7203 -92.6090 113° Southeast  Level Estimated
11:51AM 44.7689 -92.9467 113° Southeast 285 328 9,100  Level Minneapolis Center
11:52AM 44.6794 -92.4563 125° Southeast  Level Estimated
11:52AM 44.7361 -92.8319 112° Southeast 316 364 11,100  Level Minneapolis Center
11:53AM 44.6382 -92.3039 117° Southeast  Level Estimated
11:53AM 44.6986 -92.7011 112° Southeast 361 415 13,000  Level Minneapolis Center
11:54AM 44.6575 -92.5644 113° Southeast 379 436 15,300 2,220 Climbing Minneapolis Center
11:55AM 44.6064 -92.4308 118° Southeast 388 447 17,600 2,040 Climbing Minneapolis Center
11:56AM 44.5547 -92.2958 118° Southeast 390 449 19,600 1,800 Climbing Minneapolis Center
11:57AM 44.5014 -92.1536 118° Southeast 405 466 21,400 1,740 Climbing Minneapolis Center
11:58AM 44.4328 -91.9769 118° Southeast 425 489 23,300 1,620 Climbing Minneapolis Center
11:59AM 44.3747 -91.8247 118° Southeast 440 506 24,800 1,380 Climbing Minneapolis Center
12:00PM 44.3161 -91.6725 118° Southeast 445 512 26,200 1,260 Climbing Minneapolis Center
12:01PM 44.2539 -91.5164 119° Southeast 456 525 27,400 960 Climbing Minneapolis Center
12:02PM 44.2050 -91.3897 118° Southeast 461 531 28,200 1,020 Climbing Minneapolis Center
12:03PM 44.1261 -91.1889 119° Southeast 471 542 29,500 1,200 Climbing Minneapolis Center
12:04PM 44.0631 -91.0283 119° Southeast 475 547 30,700 1,080 Climbing Minneapolis Center
12:05PM 44.0003 -90.8697 119° Southeast 473 544 31,800 1,020 Climbing Minneapolis Center
12:06PM 43.9378 -90.7117 119° Southeast 470 541 32,900 1,020 Climbing Minneapolis Center
12:07PM 43.8844 -90.5311 112° Southeast 463 533 33,900 960 Climbing Minneapolis Center
12:08PM 43.8519 -90.3611 105° East 457 526 34,900 480 Climbing Minneapolis Center
12:09PM 43.8136 -90.1633 105° East 457 526 35,000  Climbing Minneapolis Center
12:10PM 43.7819 -89.9953 105° East 453 521 35,000  Level Minneapolis Center
12:11PM 43.7486 -89.8289 105° East 450 518 35,000  Level Minneapolis Center
12:12PM 43.7150 -89.6622 106° East 450 518 35,000  Level Minneapolis Center
12:13PM 43.6864 -89.5236 106° East 450 518 35,000  Level Minneapolis Center
12:14PM 43.6475 -89.3314 106° East 446 513 35,000  Level Minneapolis Center
12:15PM 43.6183 -89.1919 106° East 451 519 35,000  Level Chicago Center
12:16PM 43.5842 -89.0264 106° East 448 516 35,000  Level Chicago Center
12:17PM 43.5494 -88.8608 106° East 449 517 35,000  Level Chicago Center
12:18PM 43.5142 -88.6936 106° East 453 521 35,000  Level Chicago Center
12:19PM 43.4808 -88.5378 106° East 450 518 35,000  Level Chicago Center
12:20PM 43.4439 -88.3667 107° East 452 520 35,000  Level Chicago Center
12:21PM 43.4072 -88.1875 106° East 443 510 35,000  Level Chicago Center
12:22PM 43.3706 -88.0225 107° East 448 516 35,000  Level Chicago Center
12:23PM 43.3297 -87.8347 107° East 442 509 35,000  Level Chicago Center
12:24PM 43.2942 -87.6717 107° East 444 511 35,000  Level Chicago Center
12:25PM 43.2567 -87.5058 107° East 452 520 35,000  Level Chicago Center
12:26PM 43.2242 -87.3597 107° East 444 511 35,000  Level Chicago Center
12:27PM 43.1875 -87.1978 107° East 444 511 35,000  Level Chicago Center
12:29PM 43.1433 -87.0044 107° East 443 510 35,000  Level Chicago Center
12:30PM 43.1067 -86.8439 107° East 445 512 35,000  Level Chicago Center
12:31PM 43.0697 -86.6861 108° East 438 504 35,000  Level Chicago Center
12:32PM 43.0331 -86.5283 108° East 438 504 35,000  Level Chicago Center
12:33PM 42.9956 -86.3697 108° East 442 509 35,000  Level Chicago Center
12:34PM 42.9508 -86.1794 108° East 445 512 35,000  Level Chicago Center
12:35PM 42.9133 -86.0258 108° East 439 505 35,000  Level Chicago Center
12:36PM 42.8772 -85.8725 108° East 436 502 35,000  Level Chicago Center
12:37PM 42.8400 -85.7178 108° East 437 503 35,000  Level Chicago Center
12:38PM 42.8017 -85.5617 108° East 437 503 35,000  Level Chicago Center
12:39PM 42.7464 -85.3803 112° Southeast 436 502 35,000  Level Chicago Center
12:40PM 42.6947 -85.2331 115° Southeast 432 497 35,000  Level Chicago Center
12:41PM 42.6431 -85.0878 116° Southeast 430 495 35,000  Level Chicago Center
12:42PM 42.5906 -84.9414 116° Southeast 431 496 35,000  Level Chicago Center
12:43PM 42.5389 -84.7953 116° Southeast 431 496 35,000  Level Chicago Center
12:44PM 42.4856 -84.6483 116° Southeast 433 498 35,000  Level Chicago Center
12:45PM 42.4211 -84.4819 118° Southeast 439 505 35,000  Level Cleveland Center
12:46PM 42.3697 -84.3353 115° Southeast 439 505 35,000  Level Cleveland Center
12:47PM 42.3181 -84.1947 116° Southeast 439 505 35,000  Level Cleveland Center
12:48PM 42.2639 -84.0514 117° Southeast 434 499 35,000  Level Cleveland Center
12:49PM 42.2061 -83.8939 116° Southeast 434 499 35,000  Level Cleveland Center
12:50PM 42.1539 -83.7511 116° Southeast 434 499 35,000  Level Cleveland Center
12:51PM 42.1014 -83.6086 116° Southeast 434 499 35,000  Level Cleveland Center
12:52PM 42.0525 -83.4803 117° Southeast 429 494 35,000  Level Cleveland Center
12:53PM 41.9872 -83.3461 123° Southeast 429 494 35,000  Level Cleveland Center
12:54PM 41.9214 -83.2203 125° Southeast 422 486 35,000  Level Cleveland Center
12:55PM 41.8453 -83.0778 126° Southeast 422 486 35,000  Level Cleveland Center
12:56PM 41.7792 -82.9500 125° Southeast 422 486 35,000  Level Cleveland Center
12:57PM 41.7108 -82.8222 126° Southeast 417 480 35,000  Level Cleveland Center
12:58PM 41.6544 -82.7175 126° Southeast 417 480 35,000  Level Cleveland Center
12:59PM 41.5717 -82.5622 125° Southeast 417 480 35,000  Level Cleveland Center
01:00PM 41.5050 -82.4353 125° Southeast 423 487 35,000  Level Cleveland Center
01:01PM 41.4342 -82.3058 126° Southeast 423 487 35,000  Level Cleveland Center
01:02PM 41.3672 -82.1794 125° Southeast 423 487 35,000  Level Cleveland Center
01:03PM 41.3275 -82.0375 110° East 429 494 35,000 -840 Level Cleveland Center
01:04PM 41.2897 -81.8819 108° East 434 499 33,400 -2,340 Descending Cleveland Center
01:05PM 41.2475 -81.7236 109° East 444 511 30,400 -3,000 Descending Cleveland Center
01:06PM 41.2053 -81.5683 110° East 450 518 27,400 -2,940 Descending Cleveland Center
01:07PM 41.1689 -81.4244 109° East 437 503 24,600 -2,700 Descending Cleveland Center
01:08PM 41.1281 -81.2861 111° Southeast 388 447 22,000 -2,640 Descending Cleveland Center
01:09PM 41.0914 -81.1617 111° Southeast 368 423 19,400 -2,340 Descending Cleveland Center
01:10PM 41.0522 -81.0678 119° Southeast 357 411 17,400 -2,340 Descending Cleveland Center
01:11PM 40.9983 -80.9381 119° Southeast 362 417 14,800 -2,520 Descending Cleveland Center
01:12PM 40.9550 -80.8250 117° Southeast 357 411 12,400 -2,340 Descending Cleveland Center
01:13PM 40.8925 -80.7369 133° Southeast 351 404 10,200 -1,440 Descending Cleveland Center
01:14PM 40.8175 -80.6764 149° Southeast 297 342 9,600 -1,020 Descending Cleveland Center
01:15PM 40.7614 -80.6269 146° Southeast 279 321 8,200 -1,500 Descending Cleveland Center
01:16PM 40.7008 -80.5694 144° Southeast 270 311 6,700 -1,500 Descending Cleveland Center
01:17PM 40.6444 -80.5147 144° Southeast 264 304 5,300 -1,200 Descending Cleveland Center
01:18PM 40.5819 -80.4736 153° Southeast 252 290 4,400 -720 Descending Cleveland Center
01:19PM 40.5342 -80.4464 157° South 226 260 3,900 -540 Descending Cleveland Center